createdAt,value
2023-03-01T00:00:11.139Z,99012.91
2023-03-01T00:02:45.012Z,99007.47
2023-03-01T00:05:15.401Z,98998.88
2023-03-01T00:07:48.416Z,98994.19
2023-03-01T00:10:18.908Z,99003.50
2023-03-01T00:12:49.333Z,98996.84
2023-03-01T00:15:22.691Z,98997.59
2023-03-01T00:17:53.002Z,98993.97
2023-03-01T00:20:23.342Z,99000.56
2023-03-01T00:22:56.288Z,99003.66
2023-03-01T00:25:26.726Z,98999.75
2023-03-01T00:27:59.535Z,99002.41
2023-03-01T00:30:29.982Z,98994.97
2023-03-01T00:33:00.291Z,99003.09
2023-03-01T00:35:30.853Z,98999.16
2023-03-01T00:38:07.438Z,98996.81
2023-03-01T00:40:39.754Z,98989.81
2023-03-01T00:43:11.280Z,98997.56
2023-03-01T00:45:41.655Z,98992.47
2023-03-01T00:48:12.077Z,98993.56
2023-03-01T00:50:42.667Z,98988.88
2023-03-01T00:53:15.679Z,98986.09
2023-03-01T00:55:48.263Z,98981.44
2023-03-01T00:58:18.666Z,98981.00
2023-03-01T01:00:49.593Z,98982.19
2023-03-01T01:03:20.107Z,98973.59
2023-03-01T01:05:50.636Z,98985.63
2023-03-01T01:08:24.339Z,98972.34
2023-03-01T01:10:56.737Z,98972.34
2023-03-01T01:13:27.147Z,98967.22
2023-03-01T01:15:57.496Z,98959.75
2023-03-01T01:18:27.884Z,98959.28
2023-03-01T01:20:58.190Z,98952.25
2023-03-01T01:23:31.253Z,98952.25
2023-03-01T01:26:04.538Z,98955.34
2023-03-01T01:28:35.002Z,98947.19
2023-03-01T01:31:05.527Z,98944.00
2023-03-01T01:33:36.046Z,98937.00
2023-03-01T01:36:07.296Z,98941.72
2023-03-01T01:38:41.160Z,98948.28
2023-03-01T01:41:14.558Z,98945.88
2023-03-01T01:43:48.379Z,98941.59
2023-03-01T01:46:30.791Z,98943.84
2023-03-01T01:49:06.577Z,98933.63
2023-03-01T01:51:41.981Z,98935.56
2023-03-01T01:54:20.604Z,98927.38
2023-03-01T01:56:55.628Z,98923.81
2023-03-01T01:59:27.703Z,98928.00
2023-03-01T02:01:58.460Z,98923.69
2023-03-01T02:04:32.392Z,98925.97
2023-03-01T02:07:16.012Z,98917.84
2023-03-01T02:09:53.822Z,98924.00
2023-03-01T02:12:28.076Z,98904.63
2023-03-01T02:14:59.023Z,98912.34
2023-03-01T02:17:29.703Z,98918.50
2023-03-01T02:20:16.778Z,98911.50
2023-03-01T02:22:49.446Z,98913.72
2023-03-01T02:25:35.624Z,98910.97
2023-03-01T02:28:14.779Z,98908.69
2023-03-01T02:31:02.548Z,98909.03
2023-03-01T02:33:37.164Z,98906.63
2023-03-01T02:36:14.381Z,98912.06
2023-03-01T02:38:45.382Z,98915.91
2023-03-01T02:41:19.901Z,98910.47
2023-03-01T02:43:50.551Z,98918.28
2023-03-01T02:46:27.072Z,98918.19
2023-03-01T02:48:59.874Z,98918.97
2023-03-01T02:51:51.493Z,98914.34
2023-03-01T02:54:26.380Z,98910.06
2023-03-01T02:56:57.493Z,98905.34
2023-03-01T02:59:34.836Z,98907.78
2023-03-01T03:02:07.877Z,98898.50
2023-03-01T03:04:38.440Z,98899.69
2023-03-01T03:07:08.807Z,98905.53
2023-03-01T03:09:39.134Z,98894.31
2023-03-01T03:12:09.942Z,98885.78
2023-03-01T03:14:40.558Z,98883.88
2023-03-01T03:17:13.467Z,98888.09
2023-03-01T03:19:46.444Z,98894.19
2023-03-01T03:22:16.923Z,98888.91
2023-03-01T03:24:47.294Z,98886.19
2023-03-01T03:27:17.590Z,98885.69
2023-03-01T03:29:47.841Z,98889.56
2023-03-01T03:32:20.845Z,98894.19
2023-03-01T03:34:51.175Z,98888.78
2023-03-01T03:37:33.604Z,98882.56
2023-03-01T03:40:04.619Z,98873.16
2023-03-01T03:42:34.965Z,98869.66
2023-03-01T03:45:05.298Z,98862.59
2023-03-01T03:47:38.155Z,98861.03
2023-03-01T03:50:09.634Z,98852.44
2023-03-01T03:52:39.917Z,98852.44
2023-03-01T03:55:13.237Z,98859.03
2023-03-01T03:57:44.946Z,98860.91
2023-03-01T04:00:17.447Z,98856.59
2023-03-01T04:02:51.718Z,98863.56
2023-03-01T04:05:23.063Z,98868.19
2023-03-01T04:08:02.341Z,98873.56
2023-03-01T04:10:35.012Z,98868.84
2023-03-01T04:13:05.621Z,98869.59
2023-03-01T04:15:36.407Z,98871.09
2023-03-01T04:18:10.445Z,98867.53
2023-03-01T04:20:40.756Z,98866.31
2023-03-01T04:23:17.325Z,98862.81
2023-03-01T04:25:54.735Z,98863.25
2023-03-01T04:28:26.082Z,98860.53
2023-03-01T04:30:57.273Z,98852.75
2023-03-01T04:33:30.391Z,98849.59
2023-03-01T04:36:00.830Z,98851.03
2023-03-01T04:38:31.164Z,98854.47
2023-03-01T04:41:01.440Z,98860.69
2023-03-01T04:43:31.659Z,98853.34
2023-03-01T04:46:07.331Z,98859.47
2023-03-01T04:48:41.509Z,98850.13
2023-03-01T04:51:14.494Z,98853.25
2023-03-01T04:53:46.146Z,98859.84
2023-03-01T04:56:19.078Z,98855.63
2023-03-01T04:58:50.564Z,98852.50
2023-03-01T05:01:24.800Z,98854.78
2023-03-01T05:04:03.929Z,98848.88
2023-03-01T05:06:34.258Z,98861.19
2023-03-01T05:09:04.518Z,98850.22
2023-03-01T05:11:36.952Z,98854.78
2023-03-01T05:14:07.992Z,98858.22
2023-03-01T05:16:40.062Z,98861.19
2023-03-01T05:19:16.430Z,98857.66
2023-03-01T05:21:59.845Z,98859.94
2023-03-01T05:24:30.590Z,98863.34
2023-03-01T05:27:01.281Z,98859.84
2023-03-01T05:29:35.981Z,98850.59
2023-03-01T05:32:07.901Z,98856.81
2023-03-01T05:34:41.054Z,98851.38
2023-03-01T05:37:11.493Z,98845.19
2023-03-01T05:39:42.886Z,98842.13
2023-03-01T05:42:15.510Z,98849.81
2023-03-01T05:44:45.721Z,98842.41
2023-03-01T05:47:16.022Z,98840.09
2023-03-01T05:49:50.643Z,98845.97
2023-03-01T05:52:20.912Z,98842.13
2023-03-01T05:54:51.207Z,98842.47
2023-03-01T05:57:21.491Z,98836.19
2023-03-01T05:59:51.788Z,98838.91
2023-03-01T06:02:22.224Z,98843.94
2023-03-01T06:04:55.298Z,98850.16
2023-03-01T06:07:25.650Z,98852.16
2023-03-01T06:09:55.986Z,98846.81
2023-03-01T06:12:26.344Z,98849.16
2023-03-01T06:14:59.654Z,98839.25
2023-03-01T06:17:32.651Z,98849.47
2023-03-01T06:20:05.843Z,98846.06
2023-03-01T06:22:36.377Z,98849.22
2023-03-01T06:25:08.118Z,98841.88
2023-03-01T06:27:38.856Z,98852.06
2023-03-01T06:30:12.529Z,98849.41
2023-03-01T06:32:43.702Z,98848.47
2023-03-01T06:35:19.109Z,98852.88
2023-03-01T06:37:50.938Z,98848.28
2023-03-01T06:40:22.416Z,98842.25
2023-03-01T06:42:57.210Z,98847.44
2023-03-01T06:45:28.369Z,98852.25
2023-03-01T06:48:07.271Z,98854.38
2023-03-01T06:50:41.406Z,98856.84
2023-03-01T06:53:11.919Z,98848.47
2023-03-01T06:55:42.331Z,98848.19
2023-03-01T06:58:14.165Z,98849.13
2023-03-01T07:00:45.372Z,98855.50
2023-03-01T07:03:15.665Z,98848.59
2023-03-01T07:05:48.654Z,98853.44
2023-03-01T07:08:18.986Z,98845.53
2023-03-01T07:10:51.654Z,98853.63
2023-03-01T07:13:22.911Z,98851.09
2023-03-01T07:15:53.345Z,98855.69
2023-03-01T07:18:23.743Z,98850.91
2023-03-01T07:20:56.642Z,98855.41
2023-03-01T07:23:26.992Z,98859.47
2023-03-01T07:25:57.694Z,98856.13
2023-03-01T07:28:28.811Z,98857.47
2023-03-01T07:30:59.609Z,98851.78
2023-03-01T07:33:29.940Z,98852.25
2023-03-01T07:36:05.691Z,98849.53
2023-03-01T07:38:36.596Z,98849.44
2023-03-01T07:41:08.200Z,98848.03
2023-03-01T07:43:38.713Z,98850.50
2023-03-01T07:46:09.194Z,98850.22
2023-03-01T07:48:40.477Z,98854.81
2023-03-01T07:51:14.058Z,98843.28
2023-03-01T07:53:44.373Z,98833.25
2023-03-01T07:56:18.591Z,98820.69
2023-03-01T07:58:50.969Z,98819.00
2023-03-01T08:01:24.932Z,98814.88
2023-03-01T08:03:55.255Z,98817.22
2023-03-01T08:06:28.246Z,98813.75
2023-03-01T08:08:59.540Z,98812.22
2023-03-01T08:11:30.560Z,98808.59
2023-03-01T08:14:00.928Z,98809.03
2023-03-01T08:16:31.923Z,98797.56
2023-03-01T08:19:06.941Z,98796.47
2023-03-01T08:21:40.143Z,98788.06
2023-03-01T08:24:12.086Z,98784.97
2023-03-01T08:26:42.415Z,98782.69
2023-03-01T08:29:12.722Z,98778.66
2023-03-01T08:31:44.504Z,98779.84
2023-03-01T08:34:18.169Z,98783.38
2023-03-01T08:36:52.855Z,98784.34
2023-03-01T08:39:25.959Z,98779.81
2023-03-01T08:41:56.567Z,98788.41
2023-03-01T08:44:27.211Z,98782.06
2023-03-01T08:46:58.702Z,98768.63
2023-03-01T08:49:29.299Z,98767.91
2023-03-01T08:52:02.493Z,98771.28
2023-03-01T08:54:32.963Z,98759.41
2023-03-01T08:57:05.988Z,98756.69
2023-03-01T08:59:38.396Z,98751.09
2023-03-01T09:02:12.520Z,98754.84
2023-03-01T09:04:43.096Z,98749.50
2023-03-01T09:07:16.092Z,98751.50
2023-03-01T09:09:46.575Z,98755.81
2023-03-01T09:12:19.400Z,98753.72
2023-03-01T09:14:50.022Z,98758.56
2023-03-01T09:17:22.714Z,98744.34
2023-03-01T09:19:54.779Z,98739.75
2023-03-01T09:22:29.868Z,98733.38
2023-03-01T09:25:00.524Z,98729.09
2023-03-01T09:27:31.044Z,98723.31
2023-03-01T09:30:01.373Z,98731.00
2023-03-01T09:32:34.222Z,98725.75
2023-03-01T09:35:10.439Z,98725.75
2023-03-01T09:37:43.973Z,98728.53
2023-03-01T09:40:20.381Z,98731.31
2023-03-01T09:42:57.700Z,98731.91
2023-03-01T09:45:37.560Z,98735.25
2023-03-01T09:48:11.891Z,98732.84
2023-03-01T09:50:47.757Z,98735.28
2023-03-01T09:53:24.167Z,98735.47
2023-03-01T09:56:04.525Z,98731.84
2023-03-01T09:58:48.381Z,98733.97
2023-03-01T10:01:43.028Z,98733.22
2023-03-01T10:04:32.907Z,98737.28
2023-03-01T10:07:20.554Z,98737.06
2023-03-01T10:09:53.749Z,98725.63
2023-03-01T10:12:31.321Z,98737.75
2023-03-01T10:15:09.075Z,98742.06
2023-03-01T10:17:42.100Z,98734.72
2023-03-01T10:20:25.921Z,98735.94
2023-03-01T10:23:00.007Z,98727.22
2023-03-01T10:25:55.148Z,98734.19
2023-03-01T10:28:35.467Z,98726.19
2023-03-01T10:31:09.242Z,98714.34
2023-03-01T10:33:43.164Z,98719.06
2023-03-01T10:36:13.845Z,98711.28
2023-03-01T10:38:57.975Z,98705.59
2023-03-01T10:41:32.244Z,98705.78
2023-03-01T10:44:04.018Z,98709.81
2023-03-01T10:46:38.776Z,98698.34
2023-03-01T10:49:17.821Z,98700.44
2023-03-01T10:51:50.881Z,98692.16
2023-03-01T10:54:24.998Z,98691.44
2023-03-01T10:57:03.715Z,98695.84
2023-03-01T10:59:37.046Z,98698.66
2023-03-01T11:02:25.444Z,98698.66
2023-03-01T11:05:03.565Z,98688.81
2023-03-01T11:07:34.244Z,98688.78
2023-03-01T11:10:16.441Z,98680.41
2023-03-01T11:12:49.632Z,98682.13
2023-03-01T11:15:30.303Z,98677.03
2023-03-01T11:18:12.994Z,98684.09
2023-03-01T11:20:47.374Z,98690.50
2023-03-01T11:23:18.689Z,98691.16
2023-03-01T11:26:00.363Z,98685.69
2023-03-01T11:28:34.336Z,98672.44
2023-03-01T11:31:10.196Z,98669.59
2023-03-01T11:33:50.534Z,98678.06
2023-03-01T11:36:38.564Z,98674.44
2023-03-01T11:39:26.224Z,98682.28
2023-03-01T11:42:17.075Z,98679.78
2023-03-01T11:44:58.450Z,98679.28
2023-03-01T11:47:49.689Z,98678.75
2023-03-01T11:50:40.050Z,98677.94
2023-03-01T11:53:25.269Z,98667.59
2023-03-01T11:56:09.820Z,98671.72
2023-03-01T11:59:02.932Z,98665.41
2023-03-01T12:01:55.371Z,98660.03
2023-03-01T12:05:16.700Z,98655.66
2023-03-01T12:07:57.366Z,98655.97
2023-03-01T12:10:32.288Z,98647.19
2023-03-01T12:13:22.802Z,98646.88
2023-03-01T12:16:16.236Z,98641.19
2023-03-01T12:19:21.689Z,98636.63
2023-03-01T12:22:17.361Z,98638.22
2023-03-01T12:25:15.109Z,98627.78
2023-03-01T12:28:11.682Z,98627.38
2023-03-01T12:30:59.247Z,98620.25
2023-03-01T12:33:42.908Z,98620.63
2023-03-01T12:36:42.175Z,98610.81
2023-03-01T12:39:30.359Z,98618.22
2023-03-01T12:42:11.794Z,98616.94
2023-03-01T12:45:00.901Z,98610.81
2023-03-01T12:47:52.237Z,98606.22
2023-03-01T12:50:26.946Z,98611.31
2023-03-01T12:53:01.947Z,98610.09
2023-03-01T12:55:38.009Z,98616.22
2023-03-01T12:58:17.466Z,98607.38
2023-03-01T13:01:04.265Z,98601.91
2023-03-01T13:03:56.446Z,98601.31
2023-03-01T13:06:43.432Z,98592.81
2023-03-01T13:09:28.662Z,98587.88
2023-03-01T13:11:59.165Z,98593.94
2023-03-01T13:14:50.238Z,98590.13
2023-03-01T13:17:47.318Z,98593.56
2023-03-01T13:20:21.633Z,98585.00
2023-03-01T13:23:05.146Z,98591.84
2023-03-01T13:25:42.872Z,98583.13
2023-03-01T13:28:44.628Z,98581.03
2023-03-01T13:32:05.813Z,98582.72
2023-03-01T13:35:05.155Z,98599.81
2023-03-01T13:37:39.328Z,98599.00
2023-03-01T13:41:04.072Z,98590.41
2023-03-01T13:43:37.034Z,98593.72
2023-03-01T13:46:15.057Z,98591.47
2023-03-01T13:48:49.350Z,98584.78
2023-03-01T13:51:19.744Z,98582.03
2023-03-01T13:53:51.824Z,98588.34
2023-03-01T13:56:30.394Z,98594.44
2023-03-01T13:59:06.405Z,98580.94
2023-03-01T14:01:41.146Z,98581.78
2023-03-01T14:04:26.909Z,98592.06
2023-03-01T14:07:14.778Z,98592.00
2023-03-01T14:09:48.135Z,98587.91
2023-03-01T14:12:43.758Z,98583.41
2023-03-01T14:15:22.765Z,98590.97
2023-03-01T14:18:08.821Z,98591.97
2023-03-01T14:20:46.686Z,98571.94
2023-03-01T14:23:21.412Z,98563.75
2023-03-01T14:25:54.199Z,98563.47
2023-03-01T14:28:30.641Z,98565.06
2023-03-01T14:31:03.947Z,98569.50
2023-03-01T14:33:38.294Z,98565.97
2023-03-01T14:36:11.170Z,98570.53
2023-03-01T14:38:46.171Z,98568.47
2023-03-01T14:41:21.414Z,98566.47
2023-03-01T14:43:59.102Z,98558.09
2023-03-01T14:46:37.651Z,98559.63
2023-03-01T14:49:17.725Z,98557.31
2023-03-01T14:51:56.377Z,98552.38
2023-03-01T14:54:31.868Z,98551.78
2023-03-01T14:57:05.225Z,98548.63
2023-03-01T14:59:38.354Z,98545.00
2023-03-01T15:02:12.972Z,98551.44
2023-03-01T15:04:45.889Z,98541.88
2023-03-01T15:07:18.150Z,98547.41
2023-03-01T15:09:49.224Z,98540.91
2023-03-01T15:12:44.818Z,98536.91
2023-03-01T15:15:42.852Z,98532.69
2023-03-01T15:18:24.921Z,98533.88
2023-03-01T15:20:56.062Z,98527.38
2023-03-01T15:23:29.995Z,98520.38
2023-03-01T15:26:01.994Z,98528.72
2023-03-01T15:28:35.960Z,98519.97
2023-03-01T15:31:21.935Z,98527.97
2023-03-01T15:33:53.209Z,98522.28
2023-03-01T15:36:41.822Z,98522.97
2023-03-01T15:39:39.185Z,98521.50
2023-03-01T15:42:17.927Z,98517.94
2023-03-01T15:44:48.795Z,98525.00
2023-03-01T15:47:30.633Z,98533.00
2023-03-01T15:50:03.922Z,98528.38
2023-03-01T15:52:40.800Z,98514.66
2023-03-01T15:55:20.898Z,98538.22
2023-03-01T15:57:52.085Z,98530.56
2023-03-01T16:00:26.935Z,98532.25
2023-03-01T16:03:00.607Z,98540.13
2023-03-01T16:05:34.400Z,98531.06
2023-03-01T16:08:06.663Z,98534.09
2023-03-01T16:10:38.536Z,98534.59
2023-03-01T16:13:09.084Z,98543.00
2023-03-01T16:15:40.775Z,98543.63
2023-03-01T16:18:13.784Z,98550.72
2023-03-01T16:20:44.708Z,98550.53
2023-03-01T16:23:15.856Z,98550.44
2023-03-01T16:25:45.907Z,98547.00
2023-03-01T16:28:16.270Z,98541.13
2023-03-01T16:30:51.935Z,98543.78
2023-03-01T16:33:30.036Z,98543.31
2023-03-01T16:36:04.696Z,98542.47
2023-03-01T16:38:36.226Z,98553.28
2023-03-01T16:41:06.865Z,98548.44
2023-03-01T16:43:37.332Z,98554.56
2023-03-01T16:46:14.694Z,98551.25
2023-03-01T16:48:47.873Z,98559.34
2023-03-01T16:51:18.610Z,98560.22
2023-03-01T16:53:49.458Z,98565.72
2023-03-01T16:56:20.729Z,98567.78
2023-03-01T16:58:51.448Z,98569.66
2023-03-01T17:01:27.109Z,98574.81
2023-03-01T17:04:00.786Z,98577.69
2023-03-01T17:06:32.942Z,98582.91
2023-03-01T17:09:03.726Z,98575.91
2023-03-01T17:11:34.902Z,98577.22
2023-03-01T17:14:05.120Z,98577.34
2023-03-01T17:16:36.331Z,98577.44
2023-03-01T17:19:09.073Z,98574.44
2023-03-01T17:21:39.608Z,98575.69
2023-03-01T17:24:10.442Z,98574.13
2023-03-01T17:26:40.919Z,98570.31
2023-03-01T17:29:11.832Z,98563.75
2023-03-01T17:31:42.364Z,98572.44
2023-03-01T17:34:16.259Z,98569.78
2023-03-01T17:36:47.826Z,98568.22
2023-03-01T17:39:18.260Z,98565.94
2023-03-01T17:41:48.627Z,98574.97
2023-03-01T17:44:22.404Z,98573.38
2023-03-01T17:46:53.027Z,98571.06
2023-03-01T17:49:25.981Z,98572.34
2023-03-01T17:51:56.621Z,98567.69
2023-03-01T17:54:27.469Z,98564.56
2023-03-01T17:56:59.045Z,98572.44
2023-03-01T17:59:33.631Z,98575.53
2023-03-01T18:02:04.142Z,98571.72
2023-03-01T18:04:37.161Z,98582.78
2023-03-01T18:07:07.586Z,98580.81
2023-03-01T18:09:37.951Z,98587.13
2023-03-01T18:12:08.527Z,98586.81
2023-03-01T18:14:39.086Z,98585.25
2023-03-01T18:17:12.276Z,98581.38
2023-03-01T18:19:45.297Z,98582.19
2023-03-01T18:22:15.706Z,98585.81
2023-03-01T18:24:46.294Z,98579.94
2023-03-01T18:27:16.768Z,98586.19
2023-03-01T18:29:47.180Z,98579.69
2023-03-01T18:32:17.751Z,98580.91
2023-03-01T18:34:50.722Z,98574.66
2023-03-01T18:37:21.039Z,98567.63
2023-03-01T18:39:55.045Z,98561.81
2023-03-01T18:42:25.361Z,98553.63
2023-03-01T18:44:57.414Z,98554.81
2023-03-01T18:47:27.746Z,98545.03
2023-03-01T18:50:00.786Z,98550.88
2023-03-01T18:52:31.119Z,98550.13
2023-03-01T18:55:04.087Z,98552.50
2023-03-01T18:57:37.452Z,98553.28
2023-03-01T19:00:09.724Z,98554.13
2023-03-01T19:02:40.276Z,98560.34
2023-03-01T19:05:16.360Z,98567.69
2023-03-01T19:07:46.891Z,98568.53
2023-03-01T19:10:17.326Z,98561.56
2023-03-01T19:12:47.829Z,98565.16
2023-03-01T19:15:18.355Z,98559.69
2023-03-01T19:17:49.000Z,98576.16
2023-03-01T19:20:22.214Z,98573.91
2023-03-01T19:22:52.554Z,98564.91
2023-03-01T19:25:22.937Z,98576.31
2023-03-01T19:27:53.328Z,98572.00
2023-03-01T19:30:24.597Z,98570.44
2023-03-01T19:32:54.983Z,98567.38
2023-03-01T19:35:28.141Z,98561.09
2023-03-01T19:37:58.497Z,98555.56
2023-03-01T19:40:29.082Z,98556.34
2023-03-01T19:42:59.345Z,98565.75
2023-03-01T19:45:34.724Z,98559.59
2023-03-01T19:48:05.061Z,98558.09
2023-03-01T19:50:38.542Z,98552.72
2023-03-01T19:53:08.935Z,98552.00
2023-03-01T19:55:40.139Z,98553.53
2023-03-01T19:58:10.969Z,98558.59
2023-03-01T20:00:42.592Z,98566.44
2023-03-01T20:03:13.109Z,98561.72
2023-03-01T20:05:46.766Z,98560.50
2023-03-01T20:08:17.167Z,98566.31
2023-03-01T20:10:47.456Z,98564.81
2023-03-01T20:13:21.193Z,98561.31
2023-03-01T20:15:52.216Z,98558.28
2023-03-01T20:18:22.626Z,98555.94
2023-03-01T20:20:55.861Z,98565.69
2023-03-01T20:23:26.218Z,98569.63
2023-03-01T20:26:06.213Z,98564.19
2023-03-01T20:28:38.652Z,98563.78
2023-03-01T20:31:11.546Z,98560.66
2023-03-01T20:33:42.246Z,98561.84
2023-03-01T20:36:15.687Z,98561.50
2023-03-01T20:38:46.386Z,98556.09
2023-03-01T20:41:17.374Z,98546.34
2023-03-01T20:43:53.834Z,98555.38
2023-03-01T20:46:26.658Z,98553.44
2023-03-01T20:48:57.417Z,98559.31
2023-03-01T20:51:30.830Z,98558.19
2023-03-01T20:54:01.342Z,98553.59
2023-03-01T20:56:32.479Z,98542.28
2023-03-01T20:59:08.472Z,98543.88
2023-03-01T21:01:40.811Z,98545.84
2023-03-01T21:04:13.152Z,98543.50
2023-03-01T21:06:46.290Z,98548.97
2023-03-01T21:09:17.375Z,98547.84
2023-03-01T21:11:47.945Z,98542.03
2023-03-01T21:14:18.558Z,98545.19
2023-03-01T21:16:49.004Z,98554.56
2023-03-01T21:19:19.574Z,98556.56
2023-03-01T21:21:52.647Z,98542.50
2023-03-01T21:24:23.214Z,98551.09
2023-03-01T21:26:53.665Z,98546.75
2023-03-01T21:29:24.070Z,98544.81
2023-03-01T21:31:54.709Z,98544.03
2023-03-01T21:34:27.974Z,98543.63
2023-03-01T21:37:01.647Z,98535.44
2023-03-01T21:39:32.311Z,98537.41
2023-03-01T21:42:04.892Z,98532.69
2023-03-01T21:44:36.587Z,98535.84
2023-03-01T21:47:07.207Z,98538.63
2023-03-01T21:49:37.931Z,98533.94
2023-03-01T21:52:17.091Z,98530.84
2023-03-01T21:54:48.143Z,98517.59
2023-03-01T21:57:18.521Z,98512.16
2023-03-01T21:59:48.944Z,98508.28
2023-03-01T22:02:19.436Z,98512.19
2023-03-01T22:04:49.889Z,98509.47
2023-03-01T22:07:23.003Z,98509.91
2023-03-01T22:09:53.656Z,98505.59
2023-03-01T22:12:24.052Z,98509.13
2023-03-01T22:14:54.518Z,98500.19
2023-03-01T22:17:24.945Z,98497.44
2023-03-01T22:19:55.397Z,98504.09
2023-03-01T22:22:28.570Z,98505.28
2023-03-01T22:24:58.882Z,98505.31
2023-03-01T22:27:30.934Z,98501.00
2023-03-01T22:30:01.243Z,98495.53
2023-03-01T22:32:31.758Z,98485.03
2023-03-01T22:35:04.400Z,98498.28
2023-03-01T22:37:37.542Z,98498.28
2023-03-01T22:40:11.223Z,98489.72
2023-03-01T22:42:44.271Z,98478.41
2023-03-01T22:45:15.980Z,98472.13
2023-03-01T22:47:47.873Z,98467.06
2023-03-01T22:50:20.306Z,98467.06
2023-03-01T22:52:53.329Z,98470.97
2023-03-01T22:55:24.099Z,98472.94
2023-03-01T22:57:55.165Z,98469.06
2023-03-01T23:00:31.128Z,98465.19
2023-03-01T23:03:02.142Z,98469.84
2023-03-01T23:05:35.566Z,98468.31
2023-03-01T23:08:08.791Z,98471.03
2023-03-01T23:10:43.840Z,98465.19
2023-03-01T23:13:14.363Z,98472.16
2023-03-01T23:15:45.931Z,98475.69
2023-03-01T23:18:16.436Z,98481.16
2023-03-01T23:20:46.954Z,98477.28
2023-03-01T23:23:21.992Z,98472.59
2023-03-01T23:25:59.690Z,98466.34
2023-03-01T23:28:30.011Z,98467.91
2023-03-01T23:31:02.413Z,98475.72
2023-03-01T23:33:38.041Z,98470.25
2023-03-01T23:36:10.003Z,98466.72
2023-03-01T23:38:43.345Z,98468.69
2023-03-01T23:41:14.218Z,98477.28
2023-03-01T23:43:51.391Z,98472.59
2023-03-01T23:46:24.379Z,98466.34
2023-03-01T23:48:56.400Z,98474.53
2023-03-01T23:51:27.390Z,98462.88
2023-03-01T23:54:05.539Z,98460.91
2023-03-01T23:56:38.878Z,98463.28
2023-03-01T23:59:13.398Z,98455.88
